createdAt,value
2018-07-04T00:02:19.488Z,7.70
2018-07-04T00:04:58.174Z,10.33
2018-07-04T00:07:36.850Z,9.60
2018-07-04T00:10:15.625Z,12.13
2018-07-04T00:12:54.257Z,11.33
2018-07-04T00:15:32.745Z,11.40
2018-07-04T00:18:11.420Z,11.20
2018-07-04T00:20:49.970Z,10.93
2018-07-04T00:23:28.578Z,12.17
2018-07-04T00:26:07.194Z,10.60
2018-07-04T00:28:45.756Z,9.10
2018-07-04T00:31:24.429Z,10.57
2018-07-04T00:34:03.165Z,10.97
2018-07-04T00:36:41.833Z,8.93
2018-07-04T00:39:20.433Z,9.00
2018-07-04T00:41:59.064Z,8.60
2018-07-04T00:44:37.624Z,9.50
2018-07-04T00:47:16.395Z,10.60
2018-07-04T00:49:54.886Z,9.37
2018-07-04T00:52:33.402Z,8.90
2018-07-04T00:55:11.912Z,9.50
2018-07-04T00:57:50.489Z,9.77
2018-07-04T01:00:29.034Z,8.93
2018-07-04T01:03:07.697Z,10.07
2018-07-04T01:05:46.382Z,10.10
2018-07-04T01:08:25.042Z,9.90
2018-07-04T01:11:04.034Z,11.10
2018-07-04T01:13:42.567Z,11.37
2018-07-04T01:16:20.969Z,10.03
2018-07-04T01:18:59.637Z,10.30
2018-07-04T01:21:38.076Z,9.77
2018-07-04T01:24:16.921Z,11.13
2018-07-04T01:26:55.606Z,10.70
2018-07-04T01:29:34.351Z,10.40
2018-07-04T01:32:12.953Z,10.80
2018-07-04T01:34:51.511Z,11.30
2018-07-04T01:37:30.065Z,10.90
2018-07-04T01:40:08.550Z,9.60
2018-07-04T01:42:47.101Z,9.53
2018-07-04T01:45:25.814Z,11.20
2018-07-04T01:48:04.470Z,11.70
2018-07-04T01:50:43.040Z,11.80
2018-07-04T01:53:21.722Z,11.73
2018-07-04T01:56:00.320Z,11.40
2018-07-04T01:58:38.953Z,27.73
2018-07-04T02:01:17.605Z,12.30
2018-07-04T02:03:56.216Z,14.00
2018-07-04T02:06:34.765Z,11.80
2018-07-04T02:09:13.514Z,10.50
2018-07-04T02:11:52.209Z,12.57
2018-07-04T02:14:30.949Z,13.13
2018-07-04T02:17:09.713Z,11.67
2018-07-04T02:19:48.317Z,17.70
2018-07-04T02:22:26.888Z,15.40
2018-07-04T02:25:05.398Z,12.60
2018-07-04T02:27:43.924Z,23.13
2018-07-04T02:30:22.409Z,16.40
2018-07-04T02:33:00.997Z,12.33
2018-07-04T02:35:39.726Z,13.60
2018-07-04T02:38:18.286Z,12.93
2018-07-04T02:40:56.796Z,13.00
2018-07-04T02:43:35.334Z,13.63
2018-07-04T02:46:18.554Z,15.30
2018-07-04T02:48:57.274Z,14.70
2018-07-04T02:51:35.892Z,14.40
2018-07-04T02:54:14.447Z,14.03
2018-07-04T02:56:53.070Z,14.57
2018-07-04T02:59:33.379Z,14.67
2018-07-04T03:02:13.163Z,13.70
2018-07-04T03:04:55.814Z,25.63
2018-07-04T03:07:36.566Z,17.03
2018-07-04T03:10:17.661Z,23.97
2018-07-04T03:12:56.449Z,14.50
2018-07-04T03:15:35.005Z,12.27
2018-07-04T03:18:13.873Z,14.63
2018-07-04T03:20:52.514Z,18.37
2018-07-04T03:23:31.531Z,12.87
2018-07-04T03:26:10.105Z,12.97
2018-07-04T03:28:48.797Z,13.10
2018-07-04T03:31:27.463Z,13.40
2018-07-04T03:34:06.197Z,27.93
2018-07-04T03:36:44.688Z,19.53
2018-07-04T03:39:23.544Z,14.93
2018-07-04T03:42:02.218Z,13.73
2018-07-04T03:44:40.806Z,12.40
2018-07-04T03:47:19.426Z,12.47
2018-07-04T03:49:57.956Z,12.07
2018-07-04T03:52:36.442Z,17.23
2018-07-04T03:55:14.870Z,16.03
2018-07-04T03:57:53.578Z,13.93
2018-07-04T04:00:32.004Z,18.07
2018-07-04T04:03:10.738Z,17.00
2018-07-04T04:05:49.229Z,14.90
2018-07-04T04:08:27.851Z,16.40
2018-07-04T04:11:06.434Z,17.40
2018-07-04T04:13:45.085Z,14.33
2018-07-04T04:16:23.805Z,14.27
2018-07-04T04:19:02.544Z,15.20
2018-07-04T04:21:41.339Z,14.57
2018-07-04T04:24:19.933Z,17.93
2018-07-04T04:26:58.576Z,15.43
2018-07-04T04:29:37.335Z,15.83
2018-07-04T04:32:16.006Z,14.87
2018-07-04T04:34:54.585Z,13.97
2018-07-04T04:37:33.268Z,13.17
2018-07-04T04:40:11.830Z,14.43
2018-07-04T04:42:50.551Z,15.13
2018-07-04T04:45:29.176Z,13.67
2018-07-04T04:48:07.772Z,12.53
2018-07-04T04:50:46.361Z,14.07
2018-07-04T04:53:25.197Z,15.53
2018-07-04T04:56:03.899Z,11.70
2018-07-04T04:58:42.527Z,13.77
2018-07-04T05:01:21.313Z,11.33
2018-07-04T05:03:59.905Z,10.67
2018-07-04T05:06:38.628Z,11.07
2018-07-04T05:09:17.313Z,12.00
2018-07-04T05:11:55.965Z,13.90
2018-07-04T05:14:34.529Z,13.40
2018-07-04T05:17:13.154Z,12.50
2018-07-04T05:19:51.708Z,11.40
2018-07-04T05:22:30.341Z,10.07
2018-07-04T05:25:09.597Z,10.00
2018-07-04T05:27:48.250Z,9.60
2018-07-04T05:30:26.933Z,8.63
2018-07-04T05:33:05.554Z,9.50
2018-07-04T05:35:44.193Z,9.80
2018-07-04T05:38:22.887Z,5.70
2018-07-04T05:41:01.363Z,7.60
2018-07-04T05:43:39.974Z,7.80
2018-07-04T05:46:18.461Z,7.83
2018-07-04T05:48:57.157Z,6.27
2018-07-04T05:51:35.843Z,5.60
2018-07-04T05:54:14.518Z,5.20
2018-07-04T05:56:53.131Z,6.20
2018-07-04T05:59:31.749Z,4.20
2018-07-04T06:02:10.312Z,4.60
2018-07-04T06:04:48.946Z,4.77
2018-07-04T06:07:27.568Z,4.60
2018-07-04T06:10:06.068Z,3.57
2018-07-04T06:12:44.742Z,4.70
2018-07-04T06:15:23.346Z,5.17
2018-07-04T06:18:02.044Z,4.27
2018-07-04T06:20:40.641Z,3.83
2018-07-04T06:23:19.256Z,3.97
2018-07-04T06:25:57.921Z,4.47
2018-07-04T06:28:36.592Z,3.30
2018-07-04T06:31:15.218Z,4.63
2018-07-04T06:33:54.807Z,3.80
2018-07-04T06:36:33.288Z,3.53
2018-07-04T06:38:59.464Z,3.50
2018-07-04T06:41:25.533Z,4.90
2018-07-04T06:43:52.659Z,3.53
2018-07-04T06:46:18.730Z,3.80
2018-07-04T06:48:44.813Z,2.90
2018-07-04T06:51:10.884Z,3.80
2018-07-04T06:53:36.972Z,3.60
2018-07-04T06:56:04.897Z,3.67
2018-07-04T06:58:30.984Z,3.70
2018-07-04T07:00:57.054Z,3.43
2018-07-04T07:03:35.661Z,4.03
2018-07-04T07:06:16.143Z,4.60
2018-07-04T07:08:55.087Z,4.13
2018-07-04T07:11:33.681Z,6.40
2018-07-04T07:14:12.591Z,3.67
2018-07-04T07:16:51.084Z,4.20
2018-07-04T07:19:29.845Z,4.30
2018-07-04T07:22:08.570Z,5.53
2018-07-04T07:24:47.279Z,4.37
2018-07-04T07:27:25.918Z,3.80
2018-07-04T07:30:04.520Z,4.07
2018-07-04T07:32:43.096Z,4.70
2018-07-04T07:35:21.718Z,3.77
2018-07-04T07:38:00.572Z,4.20
2018-07-04T07:40:39.209Z,3.93
2018-07-04T07:43:18.026Z,10.10
2018-07-04T07:45:56.570Z,5.90
2018-07-04T07:48:35.159Z,8.00
2018-07-04T07:51:13.781Z,4.80
2018-07-04T07:53:52.422Z,3.60
2018-07-04T07:56:31.019Z,4.50
2018-07-04T07:59:09.701Z,3.00
2018-07-04T08:01:48.226Z,3.30
2018-07-04T08:04:26.862Z,3.37
2018-07-04T08:07:05.522Z,2.53
2018-07-04T08:09:44.173Z,3.20
2018-07-04T08:12:22.849Z,22.53
2018-07-04T08:15:01.406Z,4.97
2018-07-04T08:17:39.838Z,3.87
2018-07-04T08:20:18.384Z,3.07
2018-07-04T08:22:56.913Z,2.77
2018-07-04T08:25:35.654Z,3.73
2018-07-04T08:28:14.391Z,2.90
2018-07-04T08:30:52.949Z,2.67
2018-07-04T08:33:31.555Z,3.23
2018-07-04T08:36:09.944Z,3.13
2018-07-04T08:38:48.698Z,3.80
2018-07-04T08:41:27.297Z,3.10
2018-07-04T08:44:05.905Z,2.80
2018-07-04T08:47:48.000Z,5.97
2018-07-04T08:50:26.666Z,4.37
2018-07-04T08:53:05.225Z,3.00
2018-07-04T08:55:43.844Z,5.40
2018-07-04T08:58:22.563Z,2.90
2018-07-04T09:01:01.153Z,7.80
2018-07-04T09:03:39.846Z,3.30
2018-07-04T09:06:18.401Z,2.87
2018-07-04T09:08:57.193Z,3.57
2018-07-04T09:11:35.811Z,2.93
2018-07-04T09:14:14.664Z,3.57
2018-07-04T09:16:53.406Z,3.03
2018-07-04T09:19:32.096Z,2.30
2018-07-04T09:22:10.755Z,3.23
2018-07-04T09:24:49.160Z,2.90
2018-07-04T09:27:27.882Z,3.70
2018-07-04T09:30:06.482Z,2.57
2018-07-04T09:32:45.071Z,2.70
2018-07-04T09:35:23.540Z,2.80
2018-07-04T09:38:02.179Z,2.43
2018-07-04T09:40:40.669Z,2.40
2018-07-04T09:43:19.473Z,2.17
2018-07-04T09:45:57.982Z,2.50
2018-07-04T09:48:36.652Z,2.33
2018-07-04T09:51:15.565Z,2.13
2018-07-04T09:53:54.183Z,3.33
2018-07-04T09:56:32.964Z,2.20
2018-07-04T09:59:11.558Z,2.30
2018-07-04T10:01:50.077Z,2.40
2018-07-04T10:04:28.717Z,2.30
2018-07-04T10:07:07.209Z,2.43
2018-07-04T10:09:45.774Z,2.57
2018-07-04T10:12:24.472Z,3.60
2018-07-04T10:15:03.146Z,2.53
2018-07-04T10:17:41.662Z,1.87
2018-07-04T10:20:20.248Z,2.70
2018-07-04T10:22:59.176Z,2.17
2018-07-04T10:25:37.666Z,2.60
2018-07-04T10:28:16.417Z,2.50
2018-07-04T10:30:55.097Z,2.20
2018-07-04T10:33:33.829Z,2.57
2018-07-04T10:36:12.426Z,20.30
2018-07-04T10:38:51.069Z,2.30
2018-07-04T10:41:29.809Z,2.00
2018-07-04T10:44:08.605Z,2.63
2018-07-04T10:46:47.257Z,3.67
2018-07-04T10:49:25.849Z,6.07
2018-07-04T10:52:04.696Z,2.27
2018-07-04T10:54:43.220Z,2.10
2018-07-04T10:57:21.829Z,1.83
2018-07-04T11:00:00.446Z,1.90
2018-07-04T11:02:39.070Z,1.70
2018-07-04T11:05:17.586Z,1.90
2018-07-04T11:07:56.265Z,1.53
2018-07-04T11:10:34.900Z,1.70
2018-07-04T11:13:13.554Z,1.30
2018-07-04T11:15:52.215Z,1.70
2018-07-04T11:18:30.801Z,1.47
2018-07-04T11:21:09.389Z,1.50
2018-07-04T11:23:48.011Z,1.50
2018-07-04T11:26:26.656Z,1.50
2018-07-04T11:29:05.266Z,1.20
2018-07-04T11:31:43.808Z,2.00
2018-07-04T11:34:22.474Z,1.40
2018-07-04T11:37:01.053Z,2.00
2018-07-04T11:39:39.591Z,1.63
2018-07-04T11:42:18.283Z,1.10
2018-07-04T11:44:56.942Z,1.80
2018-07-04T11:47:23.304Z,1.20
2018-07-04T11:49:49.372Z,1.47
2018-07-04T11:52:15.440Z,3.10
2018-07-04T11:54:41.525Z,1.60
2018-07-04T11:57:07.612Z,2.57
2018-07-04T11:59:33.676Z,3.47
2018-07-04T12:01:59.756Z,2.57
2018-07-04T12:04:38.349Z,1.57
2018-07-04T12:07:09.212Z,1.57
2018-07-04T12:09:36.875Z,1.20
2018-07-04T12:12:02.946Z,1.30
2018-07-04T12:14:29.430Z,1.20
2018-07-04T12:16:55.749Z,2.07
2018-07-04T12:19:21.860Z,2.60
2018-07-04T12:21:47.953Z,1.90
2018-07-04T12:24:14.065Z,1.20
2018-07-04T12:26:40.200Z,1.00
2018-07-04T12:29:06.297Z,1.00
2018-07-04T12:31:32.507Z,1.20
2018-07-04T12:33:58.572Z,2.23
2018-07-04T12:36:24.638Z,1.77
2018-07-04T12:38:50.717Z,1.00
2018-07-04T12:41:16.769Z,2.00
2018-07-04T12:43:43.151Z,1.43
2018-07-04T12:46:09.214Z,1.60
2018-07-04T12:48:35.310Z,1.10
2018-07-04T12:51:01.739Z,1.13
2018-07-04T12:53:27.798Z,1.30
2018-07-04T12:56:06.421Z,1.00
2018-07-04T12:58:45.077Z,1.23
2018-07-04T13:01:23.697Z,1.40
2018-07-04T13:04:02.365Z,1.47
2018-07-04T13:06:41.045Z,1.17
2018-07-04T13:09:19.743Z,1.50
2018-07-04T13:11:58.359Z,1.40
2018-07-04T13:14:36.972Z,1.30
2018-07-04T13:17:15.596Z,1.20
2018-07-04T13:19:54.225Z,1.20
2018-07-04T13:22:32.878Z,1.40
2018-07-04T13:25:11.784Z,1.43
2018-07-04T13:27:50.485Z,1.10
2018-07-04T13:30:29.141Z,1.27
2018-07-04T13:33:07.870Z,1.30
2018-07-04T13:35:46.585Z,1.20
2018-07-04T13:38:25.202Z,1.13
2018-07-04T13:41:03.812Z,1.60
2018-07-04T13:43:42.493Z,1.40
2018-07-04T13:46:21.092Z,1.37
2018-07-04T13:48:59.748Z,1.83
2018-07-04T13:51:38.725Z,1.67
2018-07-04T13:54:17.468Z,1.20
2018-07-04T13:56:55.893Z,2.20
2018-07-04T13:59:34.590Z,1.30
2018-07-04T14:02:13.254Z,1.13
2018-07-04T14:04:51.793Z,1.27
2018-07-04T14:07:30.394Z,1.30
2018-07-04T14:10:09.065Z,1.10
2018-07-04T14:12:47.633Z,1.70
2018-07-04T14:15:26.537Z,1.47
2018-07-04T14:18:05.192Z,1.30
2018-07-04T14:20:43.864Z,1.30
2018-07-04T14:23:22.527Z,1.47
2018-07-04T14:26:01.078Z,2.07
2018-07-04T14:28:39.766Z,3.10
2018-07-04T14:31:18.378Z,1.40
2018-07-04T14:33:57.084Z,1.50
2018-07-04T14:36:35.570Z,1.17
2018-07-04T14:39:14.221Z,1.63
2018-07-04T14:41:52.849Z,9.00
2018-07-04T14:44:31.905Z,2.20
2018-07-04T14:47:10.613Z,7.20
2018-07-04T14:49:49.067Z,3.40
2018-07-04T14:52:27.871Z,1.30
2018-07-04T14:55:06.999Z,1.40
2018-07-04T14:57:45.936Z,1.13
2018-07-04T15:00:24.465Z,1.37
2018-07-04T15:03:03.293Z,1.77
2018-07-04T15:05:41.776Z,1.60
2018-07-04T15:08:20.457Z,2.40
2018-07-04T15:11:00.001Z,2.27
2018-07-04T15:13:39.773Z,2.83
2018-07-04T15:16:18.389Z,9.30
2018-07-04T15:18:56.964Z,1.37
2018-07-04T15:21:35.656Z,24.73
2018-07-04T15:24:14.527Z,1.33
2018-07-04T15:26:53.244Z,3.40
2018-07-04T15:29:31.958Z,1.43
2018-07-04T15:32:10.654Z,1.70
2018-07-04T15:34:49.449Z,1.40
2018-07-04T15:37:28.113Z,1.30
2018-07-04T15:40:06.915Z,2.30
2018-07-04T15:42:45.505Z,2.00
2018-07-04T15:45:24.145Z,1.60
2018-07-04T15:48:03.165Z,1.60
2018-07-04T15:50:41.961Z,3.47
2018-07-04T15:53:20.926Z,1.63
2018-07-04T15:55:59.757Z,2.03
2018-07-04T15:58:38.398Z,1.57
2018-07-04T16:01:17.319Z,1.33
2018-07-04T16:03:56.053Z,1.87
2018-07-04T16:06:34.601Z,1.43
2018-07-04T16:09:14.510Z,1.73
2018-07-04T16:11:53.026Z,1.30
2018-07-04T16:14:31.657Z,1.60
2018-07-04T16:17:10.264Z,2.60
2018-07-04T16:19:49.221Z,1.80
2018-07-04T16:22:27.897Z,1.67
2018-07-04T16:25:06.955Z,1.77
2018-07-04T16:27:45.811Z,1.80
2018-07-04T16:30:25.378Z,2.30
2018-07-04T16:33:03.996Z,1.73
2018-07-04T16:35:42.891Z,2.07
2018-07-04T16:38:21.612Z,3.90
2018-07-04T16:41:00.210Z,2.10
2018-07-04T16:43:39.259Z,2.17
2018-07-04T16:46:18.143Z,1.87
2018-07-04T16:48:56.906Z,2.03
2018-07-04T16:51:35.584Z,1.90
2018-07-04T16:54:14.453Z,2.20
2018-07-04T16:56:52.869Z,1.83
2018-07-04T16:59:31.539Z,2.23
2018-07-04T17:02:10.725Z,2.20
2018-07-04T17:04:49.516Z,2.27
2018-07-04T17:07:28.161Z,2.40
2018-07-04T17:10:06.902Z,4.70
2018-07-04T17:12:45.731Z,2.93
2018-07-04T17:15:24.500Z,5.63
2018-07-04T17:18:03.176Z,30.07
2018-07-04T17:20:42.352Z,4.80
2018-07-04T17:23:21.035Z,3.60
2018-07-04T17:25:59.575Z,6.27
2018-07-04T17:28:38.348Z,3.40
2018-07-04T17:31:16.910Z,4.10
2018-07-04T17:33:56.072Z,7.50
2018-07-04T17:36:34.876Z,5.70
2018-07-04T17:39:13.477Z,3.20
2018-07-04T17:41:52.145Z,4.30
2018-07-04T17:44:30.910Z,11.43
2018-07-04T17:47:09.408Z,10.30
2018-07-04T17:49:48.058Z,3.20
2018-07-04T17:52:26.585Z,6.40
2018-07-04T17:55:05.280Z,5.03
2018-07-04T17:57:44.048Z,4.57
2018-07-04T18:00:22.740Z,2.57
2018-07-04T18:03:01.513Z,5.07
2018-07-04T18:05:39.980Z,10.03
2018-07-04T18:08:18.761Z,6.20
2018-07-04T18:10:57.621Z,6.00
2018-07-04T18:13:36.509Z,3.73
2018-07-04T18:16:15.062Z,7.57
2018-07-04T18:18:53.784Z,5.80
2018-07-04T18:21:32.352Z,4.27
2018-07-04T18:24:11.201Z,5.10
2018-07-04T18:26:49.974Z,3.87
2018-07-04T18:29:28.576Z,2.63
2018-07-04T18:32:07.521Z,2.20
2018-07-04T18:34:46.607Z,14.63
2018-07-04T18:37:25.840Z,2.60
2018-07-04T18:40:04.462Z,7.40
2018-07-04T18:42:42.993Z,6.60
2018-07-04T18:45:21.814Z,9.20
2018-07-04T18:48:00.605Z,2.40
2018-07-04T18:50:39.196Z,13.40
2018-07-04T18:53:17.713Z,3.20
2018-07-04T18:55:56.445Z,5.37
2018-07-04T18:58:35.303Z,5.93
2018-07-04T19:01:14.537Z,7.73
2018-07-04T19:03:53.338Z,14.33
2018-07-04T19:06:32.080Z,4.83
2018-07-04T19:09:10.753Z,6.87
2018-07-04T19:11:49.277Z,4.23
2018-07-04T19:14:28.021Z,7.77
2018-07-04T19:17:06.525Z,14.13
2018-07-04T19:19:45.214Z,14.10
2018-07-04T19:22:23.852Z,2.30
2018-07-04T19:25:02.543Z,3.90
2018-07-04T19:27:41.241Z,9.57
2018-07-04T19:30:19.786Z,10.33
2018-07-04T19:32:58.334Z,13.70
2018-07-04T19:35:37.075Z,5.40
2018-07-04T19:38:15.818Z,4.87
2018-07-04T19:40:54.642Z,6.77
2018-07-04T19:43:33.377Z,4.90
2018-07-04T19:46:11.998Z,3.90
2018-07-04T19:48:50.794Z,6.53
2018-07-04T19:51:29.686Z,3.37
2018-07-04T19:54:08.350Z,16.70
2018-07-04T19:56:46.837Z,10.20
2018-07-04T19:59:25.496Z,10.00
2018-07-04T20:02:03.996Z,8.10
2018-07-04T20:04:42.692Z,1.97
2018-07-04T20:07:21.532Z,3.63
2018-07-04T20:10:00.177Z,4.67
2018-07-04T20:12:38.780Z,2.07
2018-07-04T20:15:17.317Z,2.10
2018-07-04T20:17:55.947Z,6.87
2018-07-04T20:20:34.511Z,3.37
2018-07-04T20:23:13.027Z,6.43
2018-07-04T20:25:51.623Z,3.10
2018-07-04T20:28:30.235Z,1.87
2018-07-04T20:31:08.887Z,2.47
2018-07-04T20:33:47.419Z,19.20
2018-07-04T20:36:26.351Z,3.90
2018-07-04T20:39:05.669Z,8.07
2018-07-04T20:41:44.272Z,2.43
2018-07-04T20:44:23.340Z,10.27
2018-07-04T20:47:01.845Z,3.00
2018-07-04T20:49:40.569Z,11.50
2018-07-04T20:52:19.375Z,2.83
2018-07-04T20:54:58.149Z,2.93
2018-07-04T20:57:36.749Z,6.13
2018-07-04T21:00:15.753Z,2.30
2018-07-04T21:02:54.449Z,2.03
2018-07-04T21:05:33.083Z,2.10
2018-07-04T21:08:11.907Z,3.67
2018-07-04T21:10:50.893Z,9.67
2018-07-04T21:13:29.773Z,2.23
2018-07-04T21:16:08.424Z,2.37
2018-07-04T21:18:47.023Z,2.70
2018-07-04T21:21:25.785Z,10.20
2018-07-04T21:24:04.598Z,2.30
2018-07-04T21:26:43.120Z,7.10
2018-07-04T21:29:21.963Z,2.60
2018-07-04T21:32:00.762Z,3.47
2018-07-04T21:34:39.326Z,9.83
2018-07-04T21:37:17.893Z,6.57
2018-07-04T21:39:56.456Z,2.73
2018-07-04T21:42:35.165Z,3.77
2018-07-04T21:45:13.821Z,5.10
2018-07-04T21:47:52.462Z,3.80
2018-07-04T21:50:31.114Z,5.03
2018-07-04T21:53:09.678Z,2.80
2018-07-04T21:55:48.280Z,2.17
2018-07-04T21:58:27.130Z,2.50
2018-07-04T22:01:05.593Z,2.10
2018-07-04T22:03:44.211Z,2.77
2018-07-04T22:06:22.850Z,3.40
2018-07-04T22:09:01.531Z,5.43
2018-07-04T22:11:39.960Z,3.30
2018-07-04T22:14:19.322Z,13.20
2018-07-04T22:16:57.906Z,3.70
2018-07-04T22:19:36.685Z,3.47
2018-07-04T22:22:15.217Z,3.00
2018-07-04T22:24:54.209Z,3.47
2018-07-04T22:27:32.857Z,2.90
2018-07-04T22:30:11.410Z,4.23
2018-07-04T22:32:49.970Z,2.97
2018-07-04T22:35:28.533Z,2.90
2018-07-04T22:38:07.079Z,3.10
2018-07-04T22:40:45.768Z,4.40
2018-07-04T22:43:25.033Z,4.03
2018-07-04T22:46:03.716Z,2.47
2018-07-04T22:48:42.863Z,2.80
2018-07-04T22:51:21.470Z,3.23
2018-07-04T22:54:00.061Z,2.50
2018-07-04T22:56:38.857Z,3.50
2018-07-04T22:59:17.540Z,2.70
2018-07-04T23:01:56.253Z,2.20
2018-07-04T23:04:34.757Z,2.70
2018-07-04T23:07:13.328Z,2.30
2018-07-04T23:09:51.924Z,2.47
2018-07-04T23:12:30.865Z,3.03
2018-07-04T23:15:09.488Z,2.40
2018-07-04T23:17:48.061Z,2.20
2018-07-04T23:20:26.489Z,2.97
2018-07-04T23:23:05.343Z,2.43
2018-07-04T23:25:43.942Z,2.17
2018-07-04T23:28:22.554Z,2.80
2018-07-04T23:31:01.133Z,2.60
2018-07-04T23:33:39.789Z,3.00
2018-07-04T23:36:18.328Z,3.30
2018-07-04T23:38:56.969Z,3.40
2018-07-04T23:41:35.554Z,3.10
2018-07-04T23:44:14.156Z,2.97
2018-07-04T23:46:52.575Z,2.80
2018-07-04T23:49:31.093Z,2.80
2018-07-04T23:52:09.749Z,3.27
2018-07-04T23:54:48.466Z,3.53
2018-07-04T23:57:27.262Z,2.90
